createdAt,value
2019-02-17T20:06:27.483Z,72.03
2019-02-17T20:09:15.585Z,71.95
2019-02-17T20:12:02.320Z,70.14
2019-02-17T20:14:49.846Z,71.23
2019-02-17T20:17:37.632Z,71.57
2019-02-17T20:20:25.088Z,71.39
2019-02-17T20:26:18.884Z,71.08
2019-02-17T20:32:12.977Z,68.90
2019-02-17T20:38:06.779Z,70.42
2019-02-17T20:40:53.717Z,68.45
2019-02-17T20:43:40.746Z,69.62
2019-02-17T20:46:28.010Z,70.19
2019-02-17T20:49:15.520Z,70.52
2019-02-17T20:55:11.769Z,70.92
2019-02-17T20:58:13.437Z,71.01
2019-02-17T21:01:01.249Z,71.08
2019-02-17T21:06:55.960Z,71.14
2019-02-17T21:09:42.962Z,71.21
2019-02-17T21:18:57.660Z,71.53
2019-02-17T21:21:45.030Z,71.78
2019-02-17T21:24:39.535Z,71.83
2019-02-17T21:30:33.317Z,72.10
2019-02-17T21:33:20.844Z,72.27
2019-02-17T21:36:09.598Z,72.36
2019-02-17T21:38:58.762Z,72.40
2019-02-17T21:41:44.244Z,72.31
2019-02-17T21:44:31.406Z,72.33
2019-02-17T21:47:19.720Z,72.28
2019-02-17T21:50:09.501Z,72.26
2019-02-17T21:52:56.699Z,72.28
2019-02-17T21:55:44.041Z,72.31
2019-02-17T22:01:37.198Z,73.15
2019-02-17T22:04:24.492Z,73.73
2019-02-17T22:07:11.743Z,73.60
2019-02-17T22:10:00.700Z,73.56
2019-02-17T22:12:46.292Z,73.26
2019-02-17T22:15:35.736Z,72.94
2019-02-17T22:18:23.276Z,72.55
2019-02-17T22:21:10.587Z,72.11
2019-02-17T22:23:58.105Z,69.99
2019-02-17T22:26:45.332Z,70.71
2019-02-17T22:32:39.584Z,71.33
2019-02-17T22:38:40.766Z,71.55
2019-02-17T22:41:28.707Z,71.61
2019-02-17T22:44:15.908Z,71.48
2019-02-17T22:47:03.249Z,71.28
2019-02-17T22:49:50.216Z,71.40
2019-02-17T22:55:43.734Z,71.29
2019-02-17T23:01:37.734Z,71.50
2019-02-17T23:04:25.149Z,71.64
2019-02-17T23:07:12.170Z,71.84
2019-02-17T23:10:02.022Z,71.93
2019-02-17T23:12:49.519Z,71.93
2019-02-17T23:15:36.760Z,71.93
2019-02-17T23:18:38.622Z,72.05
2019-02-17T23:21:25.844Z,72.00
2019-02-17T23:24:27.449Z,72.00
2019-02-17T23:27:15.447Z,71.87
2019-02-17T23:30:02.777Z,71.86
2019-02-17T23:32:50.082Z,71.93
2019-02-17T23:35:37.009Z,71.99
2019-02-17T23:41:30.248Z,72.19
2019-02-17T23:44:17.761Z,72.37
2019-02-17T23:47:04.909Z,72.36
2019-02-17T23:52:59.284Z,72.60
2019-02-17T23:55:48.457Z,72.75
2019-02-17T23:58:42.842Z,72.60
